Time;durP1;ratioP1;P1;durP2;ratioP2;P2;SDS_P1;SDS_P2;PMS_P1;PMS_P2;Temp;Humidity;BMP_temperature;BMP_pressure;BME280_temperature;BME280_humidity;BME280_pressure;Samples;Min_cycle;Max_cycle;Signal;HPM_P1;HPM_P2
2022/04/07 00:02:03;;;;;;;1253.07;999.90;;;;;;;;;;5102775;28;20228;-92
2022/04/07 00:04:30;;;;;;;584.40;428.00;;;;;;;;;;5103520;28;20194;-92
2022/04/07 00:06:57;;;;;;;1999.90;999.90;;;;;;;;;;5103550;28;20202;-91
2022/04/07 00:09:23;;;;;;;698.17;635.65;;;;;;;;;;5103255;28;20202;-91
2022/04/07 00:11:50;;;;;;;1999.90;999.90;;;;;;;;;;5103766;28;20203;-90
2022/04/07 00:14:16;;;;;;;1999.90;999.90;;;;;;;;;;5103724;28;20191;-93
2022/04/07 00:16:43;;;;;;;1999.90;999.90;;;;;;;;;;5101071;28;20221;-90
2022/04/07 00:19:09;;;;;;;754.85;493.85;;;;;;;;;;5101852;28;20191;-92
2022/04/07 00:21:38;;;;;;;631.92;573.03;;;;;;;;;;5103269;28;20198;-91
2022/04/07 00:24:05;;;;;;;310.60;77.57;;;;;;;;;;5103912;28;20225;-93
2022/04/07 00:26:32;;;;;;;317.27;81.20;;;;;;;;;;5102106;28;20453;-91
2022/04/07 00:28:58;;;;;;;316.03;79.50;;;;;;;;;;5102064;28;20466;-91
2022/04/07 00:31:25;;;;;;;312.80;77.50;;;;;;;;;;5102071;28;20454;-90
2022/04/07 00:33:52;;;;;;;322.00;77.33;;;;;;;;;;5102307;28;20907;-90
2022/04/07 00:36:18;;;;;;;316.90;77.57;;;;;;;;;;5102961;28;20517;-90
2022/04/07 00:38:46;;;;;;;318.50;76.00;;;;;;;;;;5102827;28;20510;-91
2022/04/07 00:41:12;;;;;;;319.07;80.33;;;;;;;;;;5102307;28;20561;-92
2022/04/07 00:43:39;;;;;;;326.47;82.57;;;;;;;;;;5102619;28;20601;-90
2022/04/07 00:46:05;;;;;;;324.87;79.70;;;;;;;;;;5102670;28;20449;-90
2022/04/07 00:48:35;;;;;;;342.97;88.90;;;;;;;;;;5103184;28;20449;-91
2022/04/07 00:51:02;;;;;;;340.67;84.27;;;;;;;;;;5102802;28;20471;-90
2022/04/07 00:53:28;;;;;;;397.70;96.45;;;;;;;;;;5102877;28;20448;-91
2022/04/07 00:56:00;;;;;;;395.45;96.93;;;;;;;;;;5103401;28;20221;-91
2022/04/07 00:58:27;;;;;;;441.33;111.90;;;;;;;;;;5103475;28;20194;-92
2022/04/07 01:00:54;;;;;;;442.55;110.15;;;;;;;;;;5102488;28;20226;-90
2022/04/07 01:03:20;;;;;;;440.17;107.00;;;;;;;;;;5102727;28;20216;-91
2022/04/07 01:05:47;;;;;;;482.95;123.68;;;;;;;;;;5103361;28;20199;-94
2022/04/07 01:08:13;;;;;;;517.05;140.15;;;;;;;;;;5102961;28;20191;-92
2022/04/07 01:10:40;;;;;;;577.42;177.82;;;;;;;;;;5101786;28;20226;-92
2022/04/07 01:13:08;;;;;;;1999.90;980.03;;;;;;;;;;5101512;28;20241;-93
2022/04/07 01:15:34;;;;;;;353.30;83.50;;;;;;;;;;5100214;28;20525;-91
2022/04/07 01:18:01;;;;;;;371.92;94.10;;;;;;;;;;5102371;28;20504;-90
2022/04/07 01:20:27;;;;;;;362.30;89.83;;;;;;;;;;5103208;28;20256;-90
2022/04/07 01:22:54;;;;;;;366.13;89.32;;;;;;;;;;5103011;28;20456;-91
2022/04/07 01:25:22;;;;;;;368.83;88.85;;;;;;;;;;5102605;28;20220;-93
2022/04/07 01:27:49;;;;;;;378.63;93.43;;;;;;;;;;5102628;28;20194;-92
2022/04/07 01:30:16;;;;;;;390.20;96.35;;;;;;;;;;5102726;28;20206;-91
2022/04/07 01:32:44;;;;;;;392.75;95.45;;;;;;;;;;5102214;28;20224;-91
2022/04/07 01:35:11;;;;;;;397.13;94.43;;;;;;;;;;5102383;28;20366;-92
2022/04/07 01:37:38;;;;;;;388.42;90.55;;;;;;;;;;5102315;28;20545;-91
2022/04/07 01:40:06;;;;;;;400.73;95.25;;;;;;;;;;5083187;28;20223;-90
2022/04/07 01:42:34;;;;;;;406.27;92.43;;;;;;;;;;5102736;28;20369;-92
2022/04/07 01:45:03;;;;;;;430.05;105.57;;;;;;;;;;5101896;28;20244;-90
2022/04/07 01:47:30;;;;;;;437.55;104.25;;;;;;;;;;5101552;28;20269;-89
2022/04/07 01:49:59;;;;;;;503.73;130.02;;;;;;;;;;5101982;28;20221;-92
2022/04/07 01:52:26;;;;;;;397.33;96.47;;;;;;;;;;5103046;28;20232;-90
2022/04/07 01:54:53;;;;;;;417.08;97.28;;;;;;;;;;5102572;28;20199;-91
2022/04/07 01:57:23;;;;;;;470.92;113.75;;;;;;;;;;5102406;28;20198;-90
2022/04/07 01:59:51;;;;;;;481.90;118.68;;;;;;;;;;5105669;28;20195;-90
2022/04/07 02:02:17;;;;;;;496.83;134.48;;;;;;;;;;5105608;28;20614;-89
2022/04/07 02:04:53;;;;;;;566.67;168.15;;;;;;;;;;5105812;28;20195;-92
2022/04/07 02:07:20;;;;;;;493.73;127.03;;;;;;;;;;5105642;28;20263;-91
2022/04/07 02:09:47;;;;;;;355.85;87.93;;;;;;;;;;5105562;28;20194;-91
2022/04/07 02:12:13;;;;;;;353.85;84.03;;;;;;;;;;5105614;28;20768;-92
2022/04/07 02:14:40;;;;;;;391.05;95.80;;;;;;;;;;5105546;28;20721;-90
2022/04/07 02:17:07;;;;;;;407.20;97.28;;;;;;;;;;5104928;28;20228;-91
2022/04/07 02:19:34;;;;;;;434.75;106.57;;;;;;;;;;5104665;28;20199;-91
2022/04/07 02:22:00;;;;;;;512.70;135.98;;;;;;;;;;5103514;28;20298;-91
2022/04/07 02:24:27;;;;;;;395.52;98.38;;;;;;;;;;5104052;28;20784;-92
2022/04/07 02:26:53;;;;;;;427.52;101.03;;;;;;;;;;5105125;28;20552;-92
2022/04/07 02:29:20;;;;;;;474.23;118.30;;;;;;;;;;5106054;28;20198;-91
2022/04/07 02:31:46;;;;;;;516.50;144.75;;;;;;;;;;5105697;28;20199;-91
2022/04/07 02:34:14;;;;;;;535.53;153.07;;;;;;;;;;5105451;28;20222;-92
2022/04/07 02:36:40;;;;;;;616.92;209.65;;;;;;;;;;5104483;28;20659;-92
2022/04/07 02:39:07;;;;;;;1999.90;999.90;;;;;;;;;;5104719;28;20639;-93
2022/04/07 02:41:33;;;;;;;931.40;700.53;;;;;;;;;;5105009;28;20234;-91
2022/04/07 02:44:02;;;;;;;215.52;64.55;;;;;;;;;;5105136;28;20195;-93
2022/04/07 02:46:29;;;;;;;229.37;67.00;;;;;;;;;;5105115;28;20464;-94
2022/04/07 02:48:55;;;;;;;250.30;74.37;;;;;;;;;;5104757;28;20445;-90
2022/04/07 02:51:23;;;;;;;252.63;73.63;;;;;;;;;;5103945;28;20977;-92
2022/04/07 02:53:51;;;;;;;260.60;75.10;;;;;;;;;;5103550;28;20453;-91
2022/04/07 02:56:17;;;;;;;261.83;72.83;;;;;;;;;;5103816;28;20455;-92
2022/04/07 02:58:44;;;;;;;265.37;76.47;;;;;;;;;;5104234;28;20444;-90
2022/04/07 03:01:14;;;;;;;265.50;77.43;;;;;;;;;;5102815;28;20553;-93
2022/04/07 03:03:40;;;;;;;262.90;75.67;;;;;;;;;;5102740;28;20441;-91
2022/04/07 03:06:07;;;;;;;264.77;74.93;;;;;;;;;;5104897;28;20483;-93
2022/04/07 03:08:35;;;;;;;265.33;76.73;;;;;;;;;;5104062;28;20456;-92
2022/04/07 03:11:01;;;;;;;265.50;76.53;;;;;;;;;;5104437;28;20449;-91
2022/04/07 03:13:27;;;;;;;263.30;74.27;;;;;;;;;;5104821;28;20498;-91
2022/04/07 03:15:54;;;;;;;273.17;76.20;;;;;;;;;;5104734;28;20458;-91
2022/04/07 03:18:21;;;;;;;265.40;76.20;;;;;;;;;;5104519;28;20471;-93
2022/04/07 03:20:48;;;;;;;267.40;76.37;;;;;;;;;;5104378;28;20481;-92
2022/04/07 03:23:14;;;;;;;262.77;75.80;;;;;;;;;;5104241;28;20478;-92
2022/04/07 03:25:42;;;;;;;264.93;75.70;;;;;;;;;;5103033;28;20478;-93
2022/04/07 03:28:09;;;;;;;266.50;77.47;;;;;;;;;;5103260;28;20494;-92
2022/04/07 03:30:35;;;;;;;264.97;77.40;;;;;;;;;;5102739;28;20535;-92
2022/04/07 03:33:02;;;;;;;270.70;75.73;;;;;;;;;;5102217;28;20501;-90
2022/04/07 03:35:28;;;;;;;270.70;77.77;;;;;;;;;;5103819;28;20501;-93
2022/04/07 03:37:55;;;;;;;269.37;78.70;;;;;;;;;;5103674;28;20453;-91
2022/04/07 03:40:21;;;;;;;265.83;75.17;;;;;;;;;;5103651;28;20448;-91
2022/04/07 03:42:49;;;;;;;271.10;77.23;;;;;;;;;;5104256;28;20441;-92
2022/04/07 03:45:16;;;;;;;274.33;78.37;;;;;;;;;;5103858;28;20597;-92
2022/04/07 03:47:42;;;;;;;269.40;76.40;;;;;;;;;;5104669;28;20502;-93
2022/04/07 03:50:09;;;;;;;275.43;79.47;;;;;;;;;;5103476;28;20445;-94
2022/04/07 03:52:36;;;;;;;267.33;75.37;;;;;;;;;;5101881;28;20478;-94
2022/04/07 03:55:03;;;;;;;272.67;77.40;;;;;;;;;;5102891;28;20448;-92
2022/04/07 03:57:29;;;;;;;271.40;77.20;;;;;;;;;;5103650;28;20843;-91
2022/04/07 03:59:57;;;;;;;272.53;76.20;;;;;;;;;;5103548;28;20441;-91
2022/04/07 04:02:23;;;;;;;274.47;76.77;;;;;;;;;;5102900;28;21063;-92
2022/04/07 04:04:50;;;;;;;274.40;77.20;;;;;;;;;;5103710;28;20437;-93
2022/04/07 04:07:16;;;;;;;274.07;76.57;;;;;;;;;;5103309;28;20502;-91
2022/04/07 04:09:45;;;;;;;276.33;75.50;;;;;;;;;;5103772;28;20589;-91
2022/04/07 04:12:11;;;;;;;271.43;76.00;;;;;;;;;;5104027;28;20752;-91
2022/04/07 04:14:38;;;;;;;277.07;78.10;;;;;;;;;;5103778;28;20437;-93
2022/04/07 04:17:06;;;;;;;274.63;77.20;;;;;;;;;;5102341;28;20849;-92
2022/04/07 04:19:33;;;;;;;274.10;76.77;;;;;;;;;;5102179;28;20441;-93
2022/04/07 04:21:59;;;;;;;282.10;80.10;;;;;;;;;;5101002;28;20520;-91
2022/04/07 04:24:26;;;;;;;275.90;76.90;;;;;;;;;;5102475;28;20445;-91
2022/04/07 04:26:52;;;;;;;276.87;76.90;;;;;;;;;;5103375;28;20444;-92
2022/04/07 04:29:19;;;;;;;275.27;77.77;;;;;;;;;;5103781;28;20466;-92
2022/04/07 04:31:45;;;;;;;284.20;80.30;;;;;;;;;;5101935;28;20444;-91
2022/04/07 04:34:13;;;;;;;276.53;75.87;;;;;;;;;;5101836;28;20506;-92
2022/04/07 04:36:40;;;;;;;279.27;77.80;;;;;;;;;;5102732;28;20444;-92
2022/04/07 04:39:06;;;;;;;282.80;79.97;;;;;;;;;;5102770;28;20456;-93
2022/04/07 04:41:33;;;;;;;280.17;77.20;;;;;;;;;;5102673;28;20721;-93
2022/04/07 04:44:00;;;;;;;277.70;77.47;;;;;;;;;;5102734;28;20471;-93
2022/04/07 04:46:27;;;;;;;280.77;78.27;;;;;;;;;;5102993;28;20451;-92
2022/04/07 04:48:53;;;;;;;280.50;78.20;;;;;;;;;;5102876;28;20474;-92
2022/04/07 04:51:21;;;;;;;282.07;80.70;;;;;;;;;;5103031;28;20445;-94
2022/04/07 04:53:48;;;;;;;281.93;78.40;;;;;;;;;;5103374;28;20505;-93
2022/04/07 04:56:14;;;;;;;278.70;77.50;;;;;;;;;;5102320;28;20449;-91
2022/04/07 04:58:40;;;;;;;281.97;79.20;;;;;;;;;;5103025;28;20506;-91
2022/04/07 05:01:07;;;;;;;285.80;80.27;;;;;;;;;;5101618;28;20476;-91
2022/04/07 05:03:33;;;;;;;282.27;80.10;;;;;;;;;;5101209;28;20441;-92
2022/04/07 05:06:00;;;;;;;283.50;80.63;;;;;;;;;;5101141;28;20441;-90
2022/04/07 05:08:28;;;;;;;281.37;80.17;;;;;;;;;;5101207;28;20513;-91
2022/04/07 05:10:54;;;;;;;278.57;77.87;;;;;;;;;;5101640;28;20441;-92
2022/04/07 05:13:21;;;;;;;282.73;80.00;;;;;;;;;;5102045;28;20452;-92
2022/04/07 05:15:48;;;;;;;280.97;78.80;;;;;;;;;;5101287;28;20524;-90
2022/04/07 05:18:14;;;;;;;281.33;78.47;;;;;;;;;;5101327;28;20457;-93
2022/04/07 05:20:41;;;;;;;283.63;79.93;;;;;;;;;;5102425;28;21098;-91
2022/04/07 05:23:07;;;;;;;282.10;79.57;;;;;;;;;;5103016;28;20890;-92
2022/04/07 05:25:35;;;;;;;281.13;78.27;;;;;;;;;;5101662;28;20448;-90
2022/04/07 05:28:02;;;;;;;282.10;78.90;;;;;;;;;;5097559;28;20887;-90
2022/04/07 05:30:28;;;;;;;278.97;77.90;;;;;;;;;;5100818;28;20437;-92
2022/04/07 05:32:55;;;;;;;279.77;78.50;;;;;;;;;;5104069;28;20448;-90
2022/04/07 05:35:21;;;;;;;283.10;78.90;;;;;;;;;;5105237;28;20525;-91
2022/04/07 05:37:48;;;;;;;278.27;76.37;;;;;;;;;;5105169;28;20456;-92
2022/04/07 05:40:14;;;;;;;283.33;79.60;;;;;;;;;;5104408;28;21048;-93
2022/04/07 05:42:42;;;;;;;282.27;79.40;;;;;;;;;;5104885;28;20492;-92
2022/04/07 05:45:09;;;;;;;283.87;80.37;;;;;;;;;;5105109;28;20475;-94
2022/04/07 05:47:39;;;;;;;284.80;78.97;;;;;;;;;;5105415;28;20531;-92
2022/04/07 05:50:06;;;;;;;291.47;82.57;;;;;;;;;;5103162;28;20444;-92
2022/04/07 05:52:33;;;;;;;285.00;81.20;;;;;;;;;;5106520;28;20444;-92
2022/04/07 05:54:59;;;;;;;285.57;79.70;;;;;;;;;;5105683;28;20441;-92
2022/04/07 05:57:26;;;;;;;286.87;81.60;;;;;;;;;;5087011;28;20515;-93
2022/04/07 05:59:54;;;;;;;290.33;84.40;;;;;;;;;;5089132;28;20444;-94
2022/04/07 06:02:21;;;;;;;287.53;81.87;;;;;;;;;;5104554;28;21169;-91
2022/04/07 06:04:47;;;;;;;288.10;81.13;;;;;;;;;;5103462;28;20769;-93
2022/04/07 06:07:13;;;;;;;286.13;82.30;;;;;;;;;;5103435;28;21218;-93
2022/04/07 06:09:40;;;;;;;289.43;82.93;;;;;;;;;;5104640;28;20440;-93
2022/04/07 06:12:09;;;;;;;286.10;81.07;;;;;;;;;;5092110;28;20458;-94
2022/04/07 06:14:35;;;;;;;287.30;82.20;;;;;;;;;;5085642;28;20456;-92
2022/04/07 06:17:03;;;;;;;290.07;82.20;;;;;;;;;;5103023;28;20505;-92
2022/04/07 06:19:30;;;;;;;294.77;86.17;;;;;;;;;;5102728;28;20443;-92
2022/04/07 06:21:56;;;;;;;290.37;82.87;;;;;;;;;;5103323;28;20484;-92
2022/04/07 06:24:23;;;;;;;286.97;81.47;;;;;;;;;;5102029;28;20457;-94
2022/04/07 06:26:50;;;;;;;284.50;80.67;;;;;;;;;;5103711;28;20527;-95
2022/04/07 06:29:16;;;;;;;280.97;78.17;;;;;;;;;;5104496;28;20494;-94
2022/04/07 06:31:45;;;;;;;284.90;79.50;;;;;;;;;;5104753;28;20478;-93
2022/04/07 06:34:13;;;;;;;285.17;80.57;;;;;;;;;;5104095;28;20495;-94
2022/04/07 06:36:40;;;;;;;290.07;84.03;;;;;;;;;;5103010;28;20441;-93
2022/04/07 06:39:06;;;;;;;291.10;83.63;;;;;;;;;;5102779;28;20453;-93
2022/04/07 06:41:33;;;;;;;297.00;83.17;;;;;;;;;;5102030;28;20480;-94
2022/04/07 06:44:00;;;;;;;286.03;80.80;;;;;;;;;;5101928;28;20536;-93
2022/04/07 06:46:26;;;;;;;292.50;83.63;;;;;;;;;;5104324;28;20470;-93
2022/04/07 06:48:53;;;;;;;286.60;81.20;;;;;;;;;;5105079;28;21186;-93
2022/04/07 06:51:21;;;;;;;285.83;81.27;;;;;;;;;;5103807;28;20457;-95
2022/04/07 06:53:47;;;;;;;299.50;82.37;;;;;;;;;;5104166;28;20452;-92
2022/04/07 06:56:14;;;;;;;288.40;81.57;;;;;;;;;;5104165;28;20453;-93
2022/04/07 06:58:40;;;;;;;289.07;80.77;;;;;;;;;;5104551;28;20437;-92
2022/04/07 07:01:08;;;;;;;288.00;81.53;;;;;;;;;;5102939;28;21357;-94
2022/04/07 07:03:35;;;;;;;290.57;82.60;;;;;;;;;;5102015;28;20518;-92
2022/04/07 07:06:01;;;;;;;290.93;83.97;;;;;;;;;;5102974;28;20436;-93
2022/04/07 07:08:29;;;;;;;290.77;82.43;;;;;;;;;;5104299;28;20511;-93
2022/04/07 07:10:56;;;;;;;291.20;81.23;;;;;;;;;;5103549;28;20445;-94
2022/04/07 07:13:23;;;;;;;286.83;78.07;;;;;;;;;;5104139;28;20448;-91
2022/04/07 07:15:50;;;;;;;284.80;79.37;;;;;;;;;;5103884;28;20516;-93
2022/04/07 07:18:16;;;;;;;284.27;79.97;;;;;;;;;;5104037;28;20453;-94
2022/04/07 07:20:43;;;;;;;290.00;82.87;;;;;;;;;;5103889;28;20468;-94
2022/04/07 07:23:09;;;;;;;285.73;81.20;;;;;;;;;;5104705;28;20497;-94
2022/04/07 07:25:37;;;;;;;293.80;84.40;;;;;;;;;;5103160;28;20483;-92
2022/04/07 07:28:04;;;;;;;291.73;82.03;;;;;;;;;;5102336;28;20452;-92
2022/04/07 07:30:31;;;;;;;294.17;82.03;;;;;;;;;;5101747;28;20433;-93
2022/04/07 07:32:58;;;;;;;291.50;81.73;;;;;;;;;;5101764;28;20475;-91
2022/04/07 07:35:25;;;;;;;298.00;81.57;;;;;;;;;;5102317;28;20464;-94
2022/04/07 07:37:52;;;;;;;296.60;84.23;;;;;;;;;;5102791;28;20452;-94
2022/04/07 07:40:20;;;;;;;288.73;81.17;;;;;;;;;;5103029;28;20445;-93
2022/04/07 07:42:48;;;;;;;286.17;79.40;;;;;;;;;;5103818;28;20531;-91
2022/04/07 07:45:15;;;;;;;291.57;82.27;;;;;;;;;;5102856;28;20675;-92
2022/04/07 07:47:42;;;;;;;299.30;81.67;;;;;;;;;;5101804;28;20453;-93
2022/04/07 07:50:08;;;;;;;284.47;77.80;;;;;;;;;;5102667;28;20453;-93
2022/04/07 07:52:35;;;;;;;290.57;81.53;;;;;;;;;;5083036;28;20563;-94
2022/04/07 07:55:02;;;;;;;294.00;80.37;;;;;;;;;;5082652;28;20468;-93
2022/04/07 07:57:28;;;;;;;291.50;80.57;;;;;;;;;;5102170;28;20472;-93
2022/04/07 07:59:57;;;;;;;292.50;82.70;;;;;;;;;;5100909;28;20510;-93
2022/04/07 08:02:23;;;;;;;290.90;80.83;;;;;;;;;;5101599;28;20503;-94
2022/04/07 08:04:50;;;;;;;285.97;79.70;;;;;;;;;;5102167;28;20444;-93
2022/04/07 08:07:16;;;;;;;291.37;79.03;;;;;;;;;;5100027;28;20452;-91
2022/04/07 08:09:43;;;;;;;297.50;83.57;;;;;;;;;;5098256;28;20448;-93
2022/04/07 08:12:09;;;;;;;341.47;91.43;;;;;;;;;;5097306;28;20453;-92
2022/04/07 08:14:36;;;;;;;383.77;102.00;;;;;;;;;;5097399;28;20444;-92
2022/04/07 08:17:04;;;;;;;469.48;131.40;;;;;;;;;;5097318;28;20489;-92
2022/04/07 08:19:30;;;;;;;480.13;135.48;;;;;;;;;;5098047;28;20198;-92
2022/04/07 08:21:57;;;;;;;503.27;144.63;;;;;;;;;;5101853;28;20224;-92
2022/04/07 08:24:23;;;;;;;436.40;116.22;;;;;;;;;;5093898;28;20207;-90
2022/04/07 08:26:50;;;;;;;484.40;140.70;;;;;;;;;;5092159;28;20203;-92
2022/04/07 08:29:16;;;;;;;451.10;124.70;;;;;;;;;;5097068;28;20202;-92
2022/04/07 08:31:43;;;;;;;497.25;138.80;;;;;;;;;;5097582;28;20195;-94
2022/04/07 08:34:11;;;;;;;721.83;369.13;;;;;;;;;;5097226;28;20227;-91
2022/04/07 08:36:39;;;;;;;510.13;153.32;;;;;;;;;;5096609;28;20660;-92
2022/04/07 08:39:07;;;;;;;484.08;133.50;;;;;;;;;;5099904;28;20202;-91
2022/04/07 08:41:34;;;;;;;796.13;475.13;;;;;;;;;;5101753;28;20264;-94
2022/04/07 08:44:01;;;;;;;645.80;288.00;;;;;;;;;;5102178;28;20265;-92
2022/04/07 08:46:28;;;;;;;929.67;615.08;;;;;;;;;;5102825;28;20667;-94
2022/04/07 08:48:56;;;;;;;307.50;87.93;;;;;;;;;;5103102;28;20202;-93
2022/04/07 08:51:26;;;;;;;314.73;88.97;;;;;;;;;;5102776;28;20440;-92
2022/04/07 08:53:52;;;;;;;310.33;87.57;;;;;;;;;;5103098;28;20479;-94
2022/04/07 08:56:19;;;;;;;308.10;86.13;;;;;;;;;;5101917;28;20463;-92
2022/04/07 08:58:45;;;;;;;307.67;87.87;;;;;;;;;;5102062;28;20441;-92
2022/04/07 09:01:12;;;;;;;307.77;85.17;;;;;;;;;;5102766;28;20445;-93
2022/04/07 09:03:38;;;;;;;313.50;88.17;;;;;;;;;;5103011;28;20492;-93
2022/04/07 09:06:05;;;;;;;306.10;86.90;;;;;;;;;;5103284;28;20441;-91
2022/04/07 09:08:33;;;;;;;305.17;83.70;;;;;;;;;;5107350;28;20459;-92
2022/04/07 09:11:00;;;;;;;309.53;89.10;;;;;;;;;;5106430;28;21904;-91
2022/04/07 09:13:29;;;;;;;311.13;88.00;;;;;;;;;;5106096;28;20472;-91
2022/04/07 09:15:56;;;;;;;323.07;93.10;;;;;;;;;;5104225;28;20477;-89
2022/04/07 09:18:23;;;;;;;310.93;89.57;;;;;;;;;;5104973;28;20445;-91
2022/04/07 09:20:49;;;;;;;314.93;89.53;;;;;;;;;;5106061;28;20449;-92
2022/04/07 09:23:17;;;;;;;311.90;85.77;;;;;;;;;;5107242;28;20833;-91
2022/04/07 09:25:47;;;;;;;314.47;88.73;;;;;;;;;;5106612;28;20472;-90
2022/04/07 09:28:13;;;;;;;310.23;85.77;;;;;;;;;;5086747;28;20437;-91
2022/04/07 09:30:41;;;;;;;314.07;89.77;;;;;;;;;;5086174;28;20477;-92
2022/04/07 09:33:19;;;;;;;310.90;88.00;;;;;;;;;;5104838;28;20452;-90
2022/04/07 09:35:57;;;;;;;319.17;93.13;;;;;;;;;;5106091;28;20462;-90
2022/04/07 09:38:24;;;;;;;318.07;94.10;;;;;;;;;;5106289;28;20941;-92
2022/04/07 09:40:53;;;;;;;313.00;88.50;;;;;;;;;;5106599;28;20444;-93
2022/04/07 09:43:19;;;;;;;318.90;87.87;;;;;;;;;;5086319;28;21017;-94
2022/04/07 09:45:46;;;;;;;317.47;90.73;;;;;;;;;;5086384;28;20453;-92
2022/04/07 09:48:17;;;;;;;318.80;88.60;;;;;;;;;;5104973;28;20445;-92
2022/04/07 09:51:01;;;;;;;335.30;94.30;;;;;;;;;;5105500;28;20938;-92
2022/04/07 09:53:30;;;;;;;321.00;87.80;;;;;;;;;;5105168;28;20460;-93
2022/04/07 09:55:58;;;;;;;324.53;90.50;;;;;;;;;;5105848;28;20477;-91
2022/04/07 09:58:25;;;;;;;321.30;90.73;;;;;;;;;;5105841;28;20448;-92
2022/04/07 10:00:51;;;;;;;323.67;87.87;;;;;;;;;;5105578;28;20477;-91
2022/04/07 10:03:18;;;;;;;320.47;90.53;;;;;;;;;;5105877;28;20505;-96
2022/04/07 10:05:44;;;;;;;322.27;85.23;;;;;;;;;;5106077;28;20437;-93
2022/04/07 10:08:11;;;;;;;327.83;87.23;;;;;;;;;;5105902;28;20448;-94
2022/04/07 10:10:38;;;;;;;312.47;88.10;;;;;;;;;;5106105;28;20445;-93
2022/04/07 10:13:06;;;;;;;311.77;84.20;;;;;;;;;;5106356;28;20449;-95
2022/04/07 10:15:36;;;;;;;313.37;81.60;;;;;;;;;;5104330;28;20445;-92
2022/04/07 10:18:05;;;;;;;318.30;84.90;;;;;;;;;;5097684;28;20459;-95
2022/04/07 10:20:34;;;;;;;317.60;83.27;;;;;;;;;;5098066;28;20436;-93
2022/04/07 10:23:06;;;;;;;318.07;80.63;;;;;;;;;;5103328;28;20484;-95
2022/04/07 10:25:33;;;;;;;314.17;78.47;;;;;;;;;;5101492;28;20499;-95
2022/04/07 10:28:03;;;;;;;317.80;82.50;;;;;;;;;;5104210;28;21129;-93
2022/04/07 10:30:32;;;;;;;316.67;79.67;;;;;;;;;;5101579;28;20437;-95
2022/04/07 10:32:58;;;;;;;313.97;80.77;;;;;;;;;;5104543;28;20448;-94
2022/04/07 10:35:29;;;;;;;312.47;77.70;;;;;;;;;;5104796;28;20472;-93
2022/04/07 10:37:56;;;;;;;322.30;80.90;;;;;;;;;;5100935;28;20464;-93
2022/04/07 10:40:33;;;;;;;312.40;78.57;;;;;;;;;;5105197;28;20449;-92
2022/04/07 10:43:13;;;;;;;315.17;80.70;;;;;;;;;;5102870;28;20515;-90
2022/04/07 10:45:41;;;;;;;322.90;81.57;;;;;;;;;;5094476;28;20457;-92
2022/04/07 10:48:32;;;;;;;319.03;82.27;;;;;;;;;;5102188;28;20457;-92
2022/04/07 10:51:00;;;;;;;308.50;75.97;;;;;;;;;;5087919;28;20491;-93
2022/04/07 10:53:27;;;;;;;309.07;80.20;;;;;;;;;;5104353;28;20456;-93
2022/04/07 10:55:55;;;;;;;321.27;80.07;;;;;;;;;;5098315;28;20968;-92
2022/04/07 10:58:24;;;;;;;309.73;76.93;;;;;;;;;;5100723;28;20472;-94
2022/04/07 11:00:52;;;;;;;300.55;73.40;;;;;;;;;;5097264;28;20445;-93
2022/04/07 11:03:19;;;;;;;307.08;74.50;;;;;;;;;;5100347;28;20244;-92
2022/04/07 11:05:53;;;;;;;302.00;76.18;;;;;;;;;;5105008;28;20195;-91
2022/04/07 11:08:21;;;;;;;299.27;73.70;;;;;;;;;;5104434;28;20220;-91
2022/04/07 11:10:48;;;;;;;303.60;77.57;;;;;;;;;;5104022;28;20444;-90
2022/04/07 11:13:15;;;;;;;305.87;73.87;;;;;;;;;;5103090;28;20204;-90
2022/04/07 11:15:54;;;;;;;308.53;75.57;;;;;;;;;;5104313;28;20444;-96
2022/04/07 11:18:42;;;;;;;403.77;89.90;;;;;;;;;;5103674;28;20457;-95
2022/04/07 11:21:09;;;;;;;454.00;108.43;;;;;;;;;;5097662;28;20218;-92
2022/04/07 11:23:39;;;;;;;479.23;121.22;;;;;;;;;;5101931;28;20279;-94
2022/04/07 11:26:10;;;;;;;522.38;137.45;;;;;;;;;;5101678;28;20221;-91
2022/04/07 11:28:37;;;;;;;478.45;124.18;;;;;;;;;;5102939;28;20199;-91
2022/04/07 11:31:07;;;;;;;578.78;202.80;;;;;;;;;;5092574;28;20325;-91
2022/04/07 11:33:36;;;;;;;615.72;237.48;;;;;;;;;;5097678;28;20196;-95
2022/04/07 11:36:29;;;;;;;546.73;177.30;;;;;;;;;;5088439;28;20191;-91
2022/04/07 11:38:56;;;;;;;273.73;80.33;;;;;;;;;;5078239;28;20621;-90
2022/04/07 11:41:23;;;;;;;276.67;81.50;;;;;;;;;;5102417;28;20953;-93
2022/04/07 11:43:50;;;;;;;283.87;84.80;;;;;;;;;;5103661;28;20552;-93
2022/04/07 11:46:25;;;;;;;286.57;87.17;;;;;;;;;;5103854;28;20441;-93
2022/04/07 11:48:51;;;;;;;289.60;87.67;;;;;;;;;;5092701;28;20456;-90
2022/04/07 11:51:18;;;;;;;286.30;88.80;;;;;;;;;;5082833;28;20450;-91
2022/04/07 11:53:46;;;;;;;295.10;90.43;;;;;;;;;;5099520;28;20482;-88
2022/04/07 11:56:14;;;;;;;285.57;88.50;;;;;;;;;;5102820;28;20448;-90
2022/04/07 11:58:41;;;;;;;288.83;89.43;;;;;;;;;;5102887;28;20463;-94
2022/04/07 12:01:11;;;;;;;290.63;89.57;;;;;;;;;;5102098;28;20487;-90
2022/04/07 12:03:39;;;;;;;288.87;90.97;;;;;;;;;;5101137;28;20487;-89
2022/04/07 12:06:06;;;;;;;298.67;91.33;;;;;;;;;;5102796;28;20468;-88
2022/04/07 12:08:32;;;;;;;298.50;91.90;;;;;;;;;;5102919;28;20448;-90
2022/04/07 12:10:59;;;;;;;286.03;88.07;;;;;;;;;;5102829;28;20441;-93
2022/04/07 12:13:25;;;;;;;288.87;87.43;;;;;;;;;;5102036;28;20440;-92
2022/04/07 12:15:52;;;;;;;302.80;93.27;;;;;;;;;;5102373;28;20625;-91
2022/04/07 12:18:24;;;;;;;304.00;98.27;;;;;;;;;;5101754;28;20440;-90
2022/04/07 12:20:59;;;;;;;303.30;97.53;;;;;;;;;;5102820;28;20452;-91
2022/04/07 12:23:26;;;;;;;308.57;92.70;;;;;;;;;;5103012;28;20574;-91
2022/04/07 12:25:57;;;;;;;305.57;95.67;;;;;;;;;;5093553;28;21074;-90
2022/04/07 12:28:23;;;;;;;299.80;96.97;;;;;;;;;;5102692;28;20445;-91
2022/04/07 12:30:51;;;;;;;298.73;96.87;;;;;;;;;;5102766;28;20445;-91
2022/04/07 12:33:47;;;;;;;302.47;94.27;;;;;;;;;;5107588;28;20451;-96
2022/04/07 12:36:15;;;;;;;312.03;101.07;;;;;;;;;;5103914;28;20445;-90
2022/04/07 12:38:50;;;;;;;303.60;99.17;;;;;;;;;;5098008;28;20484;-92
2022/04/07 12:41:17;;;;;;;318.90;101.37;;;;;;;;;;5096594;28;20449;-90
2022/04/07 12:43:47;;;;;;;311.77;101.23;;;;;;;;;;5096902;28;20951;-92
2022/04/07 12:46:13;;;;;;;323.27;100.67;;;;;;;;;;5097804;28;20475;-92
2022/04/07 12:48:55;;;;;;;312.07;101.47;;;;;;;;;;5098290;28;20577;-93
2022/04/07 12:51:26;;;;;;;307.97;100.60;;;;;;;;;;5098331;28;20440;-92
2022/04/07 12:54:04;;;;;;;308.23;100.57;;;;;;;;;;5102973;28;20448;-92
2022/04/07 12:56:31;;;;;;;308.47;96.77;;;;;;;;;;5102644;28;20449;-92
2022/04/07 12:59:00;;;;;;;307.57;103.07;;;;;;;;;;5103145;28;20450;-91
2022/04/07 13:01:27;;;;;;;310.70;103.77;;;;;;;;;;5101314;28;20508;-91
2022/04/07 13:03:54;;;;;;;305.80;102.17;;;;;;;;;;5100824;28;20491;-89
2022/04/07 13:06:20;;;;;;;305.97;101.53;;;;;;;;;;5102615;28;20471;-90
2022/04/07 13:08:48;;;;;;;314.27;99.87;;;;;;;;;;5099780;28;20914;-90
2022/04/07 13:11:30;;;;;;;314.37;98.30;;;;;;;;;;5093126;28;20442;-90
2022/04/07 13:13:57;;;;;;;311.97;99.27;;;;;;;;;;5100444;28;20563;-91
2022/04/07 13:16:23;;;;;;;313.67;98.50;;;;;;;;;;5085462;28;20442;-92
2022/04/07 13:18:50;;;;;;;311.93;100.13;;;;;;;;;;5093567;28;20445;-96
2022/04/07 13:21:16;;;;;;;306.50;98.23;;;;;;;;;;5101175;28;20444;-91
2022/04/07 13:23:43;;;;;;;313.10;101.83;;;;;;;;;;5100833;28;20484;-89
2022/04/07 13:26:11;;;;;;;308.17;98.43;;;;;;;;;;5101833;28;20775;-90
2022/04/07 13:28:37;;;;;;;319.50;102.63;;;;;;;;;;5101976;28;21024;-90
2022/04/07 13:31:04;;;;;;;316.43;99.60;;;;;;;;;;5100592;28;21016;-93
2022/04/07 13:33:30;;;;;;;321.10;99.50;;;;;;;;;;5100139;28;20440;-90
2022/04/07 13:35:57;;;;;;;308.37;100.10;;;;;;;;;;5100936;28;20445;-90
2022/04/07 13:38:23;;;;;;;311.43;97.27;;;;;;;;;;5092790;28;20507;-90
2022/04/07 13:40:50;;;;;;;313.70;100.70;;;;;;;;;;5100630;28;20454;-92
2022/04/07 13:43:17;;;;;;;316.60;102.63;;;;;;;;;;5099206;28;20459;-90
2022/04/07 13:45:45;;;;;;;317.67;102.10;;;;;;;;;;5100475;28;20492;-95
2022/04/07 13:48:11;;;;;;;313.77;99.83;;;;;;;;;;5100792;28;20830;-90
2022/04/07 13:50:37;;;;;;;311.07;97.23;;;;;;;;;;5101529;28;20456;-90
2022/04/07 13:53:04;;;;;;;317.50;103.40;;;;;;;;;;5103169;28;20449;-90
2022/04/07 13:55:32;;;;;;;318.53;98.57;;;;;;;;;;5105155;28;20473;-90
2022/04/07 13:57:58;;;;;;;332.73;97.03;;;;;;;;;;5104968;28;20441;-90
2022/04/07 14:00:26;;;;;;;316.90;100.47;;;;;;;;;;5088990;28;20465;-91
2022/04/07 14:02:53;;;;;;;321.93;100.43;;;;;;;;;;5096198;28;20440;-90
2022/04/07 14:05:20;;;;;;;324.40;97.90;;;;;;;;;;5102702;28;20485;-91